Flight Track Log - Related Links

Times and Time Zones

All times are in EDT time to prevent confusion due to time zone crossing. See the CES5799 flight status page for this flight to view local times or setup timezone preferences in your user account.

Time Position Orientation Groundspeed Altitude Reporting Facility
EDT Latitude Longitude Course Direction KTS MPH feet Rate Location/Type
Fri 09:38:00 PM 27.2545 104.8389 38° Northeast  Level Estimated
Fri 09:39:00 PM 27.3338 104.9110 39° Northeast  Level Estimated
Fri 09:40:00 PM 27.4130 104.9832 39° Northeast  Level Estimated
Fri 09:41:00 PM 27.4921 105.0555 39° Northeast  Level Estimated
Fri 09:42:00 PM 27.5712 105.1279 39° Northeast  Level Estimated
Fri 09:43:00 PM 27.6503 105.2004 39° Northeast  Level Estimated
Fri 09:44:00 PM 27.7294 105.2731 39° Northeast  Level Estimated
Fri 09:45:00 PM 27.8084 105.3458 39° Northeast  Level Estimated
Fri 09:46:00 PM 27.8873 105.4187 39° Northeast  Level Estimated
Fri 09:47:00 PM 27.9663 105.4916 39° Northeast  Level Estimated
Fri 09:48:00 PM 28.0452 105.5647 39° Northeast  Level Estimated
Fri 09:49:00 PM 28.1240 105.6378 39° Northeast  Level Estimated
Fri 09:50:00 PM 28.2028 105.7111 39° Northeast  Level Estimated
Fri 09:51:00 PM 28.2816 105.7845 39° Northeast  Level Estimated
Fri 09:52:00 PM 28.3603 105.8580 39° Northeast  Level Estimated
Fri 09:53:00 PM 28.4390 105.9316 39° Northeast  Level Estimated
Fri 09:54:00 PM 28.5177 106.0053 39° Northeast  Level Estimated
Fri 09:55:00 PM 28.5963 106.0791 39° Northeast  Level Estimated
Fri 09:56:00 PM 28.6749 106.1530 40° Northeast  Level Estimated
Fri 09:57:00 PM 28.7534 106.2271 40° Northeast  Level Estimated
Fri 09:58:00 PM 28.8319 106.3012 40° Northeast  Level Estimated
Fri 09:59:00 PM 28.9103 106.3755 40° Northeast  Level Estimated
Fri 10:00:00 PM 28.9888 106.4499 40° Northeast  Level Estimated
Fri 10:01:00 PM 29.0671 106.5244 40° Northeast  Level Estimated
Fri 10:02:00 PM 29.1455 106.5990 40° Northeast  Level Estimated
Fri 10:03:00 PM 29.2237 106.6737 40° Northeast  Level Estimated
Fri 10:04:00 PM 29.3020 106.7485 40° Northeast  Level Estimated
Fri 10:05:00 PM 29.3802 106.8234 40° Northeast  Level Estimated
Fri 10:06:00 PM 29.4584 106.8985 40° Northeast  Level Estimated
Fri 10:07:00 PM 29.5365 106.9737 40° Northeast  Level Estimated
Fri 10:08:00 PM 29.6146 107.0490 40° Northeast  Level Estimated
Fri 10:09:00 PM 29.6926 107.1244 40° Northeast  Level Estimated
Fri 10:10:00 PM 29.7706 107.1999 40° Northeast  Level Estimated
Fri 10:11:00 PM 29.8485 107.2756 40° Northeast  Level Estimated
Fri 10:12:00 PM 29.9265 107.3513 40° Northeast  Level Estimated
Fri 10:12:16 PM 29.6880 106.7040 40° Northeast 439 505 37,100  Level FlightAware ADS-B
Fri 10:13:00 PM 30.0043 107.4272 40° Northeast  Level Estimated
Fri 10:13:13 PM 29.7710 106.7160 North 439 505 37,100  Level FlightAware ADS-B
Fri 10:13:49 PM 29.8330 106.7250 North 439 505 37,100  Level FlightAware ADS-B
Fri 10:14:37 PM 29.9150 106.7370 North 439 505 37,100  Level FlightAware ADS-B
Fri 10:15:14 PM 29.9790 106.7460 North 439 505 37,100  Level FlightAware ADS-B
Fri 10:15:58 PM 30.0540 106.7560 North 439 505 37,100  Level FlightAware ADS-B
Fri 10:16:34 PM 30.1160 106.7650 North 439 505 37,100  Level FlightAware ADS-B
Fri 10:17:22 PM 30.1980 106.7770 North 439 505 37,100  Level FlightAware ADS-B
Fri 10:17:58 PM 30.2600 106.7850 North 439 505 37,100  Level FlightAware ADS-B
Fri 10:18:46 PM 30.3420 106.7970 North 439 505 37,100  Level FlightAware ADS-B
Fri 10:19:23 PM 30.4050 106.8060 North 439 505 37,100  Level FlightAware ADS-B
Fri 10:20:11 PM 30.4870 106.8180 North 439 505 37,100  Level FlightAware ADS-B
Fri 10:20:51 PM 30.5560 106.8280 North 439 505 37,100  Level FlightAware ADS-B
Fri 10:21:37 PM 30.6350 106.8390 North 439 505 37,100  Level FlightAware ADS-B
Fri 10:22:15 PM 30.7000 106.8480 North 439 505 37,100  Level FlightAware ADS-B
Fri 10:24:00 PM 30.8202 107.0014 48° Northeast  Level Estimated
Fri 10:25:00 PM 30.8887 107.0892 48° Northeast  Level Estimated
Fri 10:26:00 PM 30.9573 107.1771 48° Northeast  Level Estimated
Fri 10:27:00 PM 31.0257 107.2652 48° Northeast  Level Estimated
Fri 10:28:00 PM 31.0941 107.3533 48° Northeast  Level Estimated
Fri 10:29:00 PM 31.1625 107.4416 48° Northeast  Level Estimated
Fri 10:30:00 PM 31.2307 107.5301 48° Northeast  Level Estimated
Fri 10:31:00 PM 31.2989 107.6187 48° Northeast  Level Estimated
Fri 10:32:00 PM 31.3671 107.7073 48° Northeast  Level Estimated
Fri 10:33:00 PM 31.4352 107.7962 48° Northeast  Level Estimated
Fri 10:34:00 PM 31.5032 107.8851 48° Northeast  Level Estimated
Fri 10:35:00 PM 31.5712 107.9742 48° Northeast  Level Estimated
Fri 10:36:00 PM 31.6391 108.0634 48° Northeast  Level Estimated
Fri 10:37:00 PM 31.7069 108.1527 48° Northeast  Level Estimated
Fri 10:38:00 PM 31.7747 108.2422 48° Northeast  Level Estimated
Fri 10:39:00 PM 31.8424 108.3318 48° Northeast  Level Estimated
Fri 10:40:00 PM 31.9101 108.4215 48° Northeast  Level Estimated
Fri 10:41:00 PM 31.9777 108.5114 48° Northeast  Level Estimated
Fri 10:42:00 PM 32.0452 108.6014 48° Northeast  Level Estimated
Fri 10:43:00 PM 32.1127 108.6915 49° Northeast  Level Estimated
Fri 10:44:00 PM 32.1801 108.7818 49° Northeast  Level Estimated
Fri 10:45:00 PM 32.2474 108.8722 49° Northeast  Level Estimated
Fri 10:46:00 PM 32.3147 108.9627 49° Northeast  Level Estimated
Fri 10:47:00 PM 32.3819 109.0534 49° Northeast  Level Estimated
Fri 10:48:00 PM 32.4491 109.1442 49° Northeast  Level Estimated
Fri 10:49:00 PM 32.5162 109.2351 49° Northeast  Level Estimated
Fri 10:50:00 PM 32.5832 109.3262 49° Northeast  Level Estimated
Fri 10:51:00 PM 32.6501 109.4174 49° Northeast  Level Estimated
Fri 10:52:00 PM 32.7170 109.5088 49° Northeast  Level Estimated
Fri 10:53:00 PM 32.7838 109.6003 49° Northeast  Level Estimated
Fri 10:54:00 PM 32.8506 109.6919 49° Northeast  Level Estimated
Fri 10:55:00 PM 32.9173 109.7836 49° Northeast  Level Estimated
Fri 10:56:00 PM 32.9839 109.8755 49° Northeast  Level Estimated
Fri 10:57:00 PM 33.0504 109.9676 49° Northeast  Level Estimated
Fri 10:58:00 PM 33.1169 110.0597 49° Northeast  Level Estimated
Fri 10:59:00 PM 33.1833 110.1520 49° Northeast  Level Estimated
Fri 11:00:00 PM 33.2496 110.2445 49° Northeast  Level Estimated
Fri 11:01:00 PM 33.3159 110.3371 49° Northeast  Level Estimated
Fri 11:02:00 PM 33.3821 110.4298 49° Northeast  Level Estimated
Fri 11:03:00 PM 33.4483 110.5227 50° Northeast  Level Estimated
Fri 11:04:00 PM 33.5144 110.6157 50° Northeast  Level Estimated
Fri 11:05:00 PM 33.5803 110.7089 50° Northeast  Level Estimated
Fri 11:06:00 PM 33.6463 110.8022 50° Northeast  Level Estimated
Fri 11:07:00 PM 33.7121 110.8956 50° Northeast  Level Estimated
Fri 11:08:00 PM 33.7779 110.9892 50° Northeast  Level Estimated
Fri 11:09:00 PM 33.8437 111.0830 50° Northeast  Level Estimated
Fri 11:10:00 PM 33.9093 111.1768 50° Northeast  Level Estimated
Fri 11:11:00 PM 33.9749 111.2709 50° Northeast  Level Estimated
Fri 11:12:00 PM 34.0404 111.3650 50° Northeast  Level Estimated
Fri 11:13:00 PM 34.1058 111.4593 50° Northeast  Level Estimated
Fri 11:14:00 PM 34.1739 111.5578 50° Northeast  Level Estimated
Fri 11:15:00 PM 34.2419 111.6564 50° Northeast  Level Estimated
Fri 11:16:00 PM 34.3099 111.7551 50° Northeast  Level Estimated
Fri 11:17:00 PM 34.3778 111.8540 50° Northeast  Level Estimated
Fri 11:18:00 PM 34.4455 111.9531 50° Northeast  Level Estimated
Fri 11:19:00 PM 34.5133 112.0523 50° Northeast  Level Estimated
Fri 11:20:00 PM 34.5809 112.1517 50° Northeast  Level Estimated
Fri 11:21:00 PM 34.6484 112.2513 50° Northeast  Level Estimated
Fri 11:22:00 PM 34.7159 112.3510 51° Northeast  Level Estimated
Fri 11:23:00 PM 34.7411 112.3883 51° Northeast  Level Estimated
Fri 11:24:00 PM 34.7411 112.3883 68° East  Level Estimated
Fri 11:25:00 PM 34.7411 112.3883 68° East  Level Estimated
Fri 11:26:00 PM 34.7411 112.3883 68° East  Level Estimated

Login

Don't have an account? Register now (free) for customized features, flight alerts, and more!